Time;durP1;ratioP1;P1;durP2;ratioP2;P2;SDS_P1;SDS_P2;PMS_P1;PMS_P2;Temp;Humidity;BMP_temperature;BMP_pressure;BME280_temperature;BME280_humidity;BME280_pressure;Samples;Min_cycle;Max_cycle;Signal;HPM_P1;HPM_P2
2022/05/29 00:00:13;;;;;;;5.95;3.65;;;;;;;7.15;79.36;98092.06;5054411;28;20036;-66
2022/05/29 00:02:40;;;;;;;6.00;3.72;;;;;;;7.12;78.82;98094.38;5054454;28;20501;-66
2022/05/29 00:05:08;;;;;;;5.70;3.55;;;;;;;7.13;79.23;98104.66;5054188;28;20123;-66
2022/05/29 00:07:34;;;;;;;6.38;3.42;;;;;;;7.11;78.86;98092.78;5054520;28;20127;-67
2022/05/29 00:10:03;;;;;;;5.47;3.40;;;;;;;7.10;79.40;98088.56;5036134;28;20076;-67
2022/05/29 00:12:29;;;;;;;7.30;3.25;;;;;;;7.09;79.30;98092.22;5053553;28;20045;-68
2022/05/29 00:14:55;;;;;;;4.55;3.22;;;;;;;7.06;79.00;98101.44;5054525;28;20055;-67
2022/05/29 00:17:20;;;;;;;6.38;3.25;;;;;;;7.03;79.25;98101.94;5054112;28;20049;-67
2022/05/29 00:19:47;;;;;;;5.25;2.88;;;;;;;7.02;79.62;98095.84;5053721;28;20182;-65
2022/05/29 00:22:16;;;;;;;4.60;2.95;;;;;;;7.03;79.38;98101.94;5054202;28;20045;-67
2022/05/29 00:24:45;;;;;;;7.68;3.35;;;;;;;7.03;79.23;98099.28;5036396;28;20447;-67
2022/05/29 00:27:11;;;;;;;4.63;3.08;;;;;;;7.02;79.40;98105.59;5053851;28;20120;-66
2022/05/29 00:29:38;;;;;;;3.38;2.80;;;;;;;7.01;79.37;98104.81;5054073;28;20048;-65
2022/05/29 00:32:05;;;;;;;4.82;2.95;;;;;;;7.01;79.54;98106.66;5053553;28;20482;-66
2022/05/29 00:34:31;;;;;;;7.63;3.05;;;;;;;7.02;79.46;98108.22;5053927;28;20041;-66
2022/05/29 00:36:58;;;;;;;6.45;3.22;;;;;;;7.00;79.51;98110.31;5035735;28;20071;-66
2022/05/29 00:39:25;;;;;;;5.53;3.10;;;;;;;6.97;79.41;98103.72;5019496;28;20071;-66
2022/05/29 00:41:51;;;;;;;5.05;2.92;;;;;;;6.98;79.34;98104.50;5053654;28;20060;-66
2022/05/29 00:44:21;;;;;;;4.03;3.03;;;;;;;6.96;79.59;98109.22;5035881;28;20497;-66
2022/05/29 00:46:48;;;;;;;;;;;;;;;6.94;79.36;98106.00;5054194;28;20079;-66
2022/05/29 00:49:15;;;;;;;5.85;3.22;;;;;;;6.89;79.72;98100.69;5053296;28;20377;-66
2022/05/29 00:51:46;;;;;;;7.00;3.30;;;;;;;6.86;79.37;98109.88;5052814;28;20523;-65
2022/05/29 00:54:13;;;;;;;6.63;3.05;;;;;;;6.84;79.90;98109.31;5019126;28;20048;-66
2022/05/29 00:56:39;;;;;;;7.90;3.38;;;;;;;6.82;80.04;98117.47;5035427;28;20121;-66
2022/05/29 00:59:13;;;;;;;9.05;3.22;;;;;;;6.84;79.75;98119.84;5035246;28;20473;-66
2022/05/29 01:01:39;;;;;;;8.00;3.05;;;;;;;6.88;80.14;98120.97;5035663;28;20120;-67
2022/05/29 01:04:05;;;;;;;7.47;2.60;;;;;;;6.95;79.93;98121.59;5035526;28;20099;-65
2022/05/29 01:06:30;;;;;;;6.28;2.88;;;;;;;6.99;79.60;98120.03;5052161;28;20045;-67
2022/05/29 01:08:59;;;;;;;4.85;2.58;;;;;;;7.09;79.52;98129.94;5053022;28;20040;-67
2022/05/29 01:12:02;;;;;;;5.13;2.60;;;;;;;7.24;78.46;98126.69;5052635;28;20055;-66
2022/05/29 01:14:57;;;;;;;6.35;3.20;;;;;;;7.58;77.45;98135.19;5052755;28;20065;-67
2022/05/29 01:17:23;;;;;;;2.88;2.58;;;;;;;7.92;76.58;98135.00;4999679;28;20052;-66
2022/05/29 01:19:55;;;;;;;3.70;2.42;;;;;;;8.20;75.00;98134.69;5052771;28;20041;-66
2022/05/29 01:22:49;;;;;;;6.22;2.75;;;;;;;8.64;73.80;98128.44;5018582;28;20060;-67
2022/05/29 01:25:36;;;;;;;4.72;2.42;;;;;;;8.96;72.64;98128.34;5053015;28;20036;-67
2022/05/29 01:28:14;;;;;;;4.10;2.30;;;;;;;9.29;70.65;98123.72;5052967;28;20114;-66
2022/05/29 01:30:47;;;;;;;4.13;2.25;;;;;;;9.66;69.12;98126.19;5052479;28;20045;-66
2022/05/29 01:33:35;;;;;;;4.07;2.40;;;;;;;9.88;68.87;98135.75;5034951;28;20060;-67
2022/05/29 01:36:06;;;;;;;6.38;2.45;;;;;;;10.29;67.04;98133.94;5015036;28;20128;-66
2022/05/29 01:38:41;;;;;;;4.28;2.28;;;;;;;10.78;66.14;98135.19;5015732;28;20049;-66
2022/05/29 01:41:34;;;;;;;4.68;2.20;;;;;;;11.27;64.69;98137.16;5052695;28;20045;-66
2022/05/29 01:44:08;;;;;;;3.20;2.40;;;;;;;11.60;62.45;98138.31;5029710;28;20067;-67
2022/05/29 01:46:35;;;;;;;3.72;2.47;;;;;;;11.98;61.21;98143.97;5052578;28;20056;-66
2022/05/29 01:49:04;;;;;;;8.15;2.13;;;;;;;12.36;60.47;98144.19;5052421;28;20068;-67
2022/05/29 01:51:53;;;;;;;3.33;2.08;;;;;;;12.49;59.37;98149.63;5033989;28;20135;-65
2022/05/29 01:54:20;;;;;;;3.37;2.50;;;;;;;12.80;59.04;98154.69;5034440;28;20528;-67
2022/05/29 01:56:49;;;;;;;9.82;2.33;;;;;;;12.88;57.00;98164.72;5051978;28;20307;-66
2022/05/29 01:59:23;;;;;;;5.05;2.40;;;;;;;12.76;57.92;98169.59;5017363;28;20043;-66
2022/05/29 02:01:55;;;;;;;4.78;2.20;;;;;;;12.65;58.98;98168.13;5051930;28;20048;-67
2022/05/29 02:04:23;;;;;;;3.83;2.08;;;;;;;12.78;58.32;98171.97;5034635;28;20098;-66
2022/05/29 02:09:48;;;;;;;3.03;2.47;;;;;;;13.79;55.92;98170.00;5036471;28;20041;-66
2022/05/29 02:12:17;;;;;;;3.20;2.30;;;;;;;14.22;53.98;98177.91;5051755;28;20041;-66
2022/05/29 02:14:50;;;;;;;2.80;2.20;;;;;;;14.59;52.92;98172.78;5034099;28;20052;-66
2022/05/29 02:17:18;;;;;;;2.40;2.00;;;;;;;14.93;53.34;98170.59;5033863;28;20406;-66
2022/05/29 02:20:23;;;;;;;3.67;2.10;;;;;;;15.16;50.47;98184.84;5033827;28;20406;-66
2022/05/29 02:22:54;;;;;;;4.90;2.30;;;;;;;15.01;51.80;98179.78;5046777;28;20254;-66
2022/05/29 02:25:21;;;;;;;4.07;2.13;;;;;;;15.54;51.16;98189.97;5051521;28;20053;-67
2022/05/29 02:27:52;;;;;;;3.33;1.80;;;;;;;15.81;50.32;98185.69;5051448;28;20128;-66
2022/05/29 02:30:19;;;;;;;3.50;1.90;;;;;;;15.79;50.35;98187.88;5033610;28;20033;-66
2022/05/29 02:33:16;;;;;;;3.95;1.77;;;;;;;16.01;48.36;98187.91;5033750;28;20049;-66
2022/05/29 02:35:56;;;;;;;2.95;1.80;;;;;;;16.23;48.48;98191.69;5033839;28;20045;-65
2022/05/29 02:38:26;;;;;;;2.65;1.98;;;;;;;15.98;48.16;98191.19;5033781;28;20116;-66
2022/05/29 02:41:02;;;;;;;4.50;2.35;;;;;;;16.14;48.21;98194.28;5033880;28;20055;-67
2022/05/29 02:43:32;;;;;;;5.07;2.45;;;;;;;16.07;48.90;98193.94;5051370;28;20045;-66
2022/05/29 02:46:07;;;;;;;;;;;;;;;16.31;47.33;98199.00;5033961;28;20486;-65
2022/05/29 02:48:49;;;;;;;1.85;1.67;;;;;;;16.19;47.76;98206.75;5033171;28;20476;-66
2022/05/29 02:51:32;;;;;;;4.20;1.90;;;;;;;16.21;47.96;98207.25;5033472;28;20047;-66
2022/05/29 02:53:58;;;;;;;3.53;1.83;;;;;;;16.34;47.53;98214.44;5051413;28;20075;-66
2022/05/29 02:56:23;;;;;;;3.15;1.95;;;;;;;16.15;48.22;98211.13;5051244;28;20494;-66
2022/05/29 02:58:51;;;;;;;3.47;1.98;;;;;;;16.43;47.57;98222.50;5051244;28;20040;-66
2022/05/29 03:01:35;;;;;;;3.70;1.95;;;;;;;16.56;47.96;98219.78;5051204;28;20552;-66
2022/05/29 03:04:23;;;;;;;5.90;1.90;;;;;;;16.52;47.52;98234.06;5050987;28;20041;-66
2022/05/29 03:07:13;;;;;;;3.30;2.20;;;;;;;15.76;48.77;98232.00;5051555;28;20049;-66
2022/05/29 03:09:58;;;;;;;4.43;2.30;;;;;;;15.22;51.25;98239.72;5050871;28;20041;-66
2022/05/29 03:12:27;;;;;;;2.38;2.22;;;;;;;15.09;51.20;98239.69;5032890;28;20048;-65
2022/05/29 03:15:01;;;;;;;9.23;2.10;;;;;;;15.26;51.40;98239.91;5050968;28;20045;-66
2022/05/29 03:17:45;;;;;;;4.85;1.65;;;;;;;15.66;50.21;98246.34;5051156;28;20061;-66
2022/05/29 03:20:29;;;;;;;3.92;1.98;;;;;;;16.35;49.46;98251.56;5033394;28;20456;-67
2022/05/29 03:23:21;;;;;;;9.05;2.60;;;;;;;16.55;49.14;98254.84;5051316;28;20045;-66
2022/05/29 03:25:50;;;;;;;3.25;2.00;;;;;;;16.66;48.08;98253.53;5033541;28;20052;-66
2022/05/29 03:28:33;;;;;;;2.97;1.90;;;;;;;16.43;48.34;98258.06;5050955;28;20048;-65
2022/05/29 03:31:00;;;;;;;3.15;1.77;;;;;;;15.56;50.55;98264.44;5036590;28;20041;-66
2022/05/29 03:33:26;;;;;;;3.47;1.80;;;;;;;14.75;52.14;98270.16;5055032;28;20081;-66
2022/05/29 03:35:51;;;;;;;6.47;2.05;;;;;;;14.47;53.08;98271.88;5036978;28;20076;-67
2022/05/29 03:38:17;;;;;;;5.93;1.90;;;;;;;13.75;55.29;98274.75;5054987;28;20080;-67
2022/05/29 03:40:43;;;;;;;5.20;2.03;;;;;;;13.58;56.37;98267.22;5054389;28;20048;-66
2022/05/29 03:43:09;;;;;;;2.03;1.83;;;;;;;13.44;56.57;98271.63;5036866;28;20490;-67
2022/05/29 03:45:34;;;;;;;2.90;1.98;;;;;;;13.27;57.01;98274.75;5054691;28;20094;-67
2022/05/29 03:48:01;;;;;;;1.63;1.40;;;;;;;13.63;56.44;98280.47;5054179;28;20051;-65
2022/05/29 03:50:27;;;;;;;2.65;1.90;;;;;;;13.80;55.48;98282.69;5036760;28;20418;-67
2022/05/29 03:52:53;;;;;;;3.58;1.80;;;;;;;14.36;54.22;98284.59;5054726;28;20562;-66
2022/05/29 03:55:21;;;;;;;3.90;2.00;;;;;;;14.43;53.33;98287.69;5054567;28;20051;-67
2022/05/29 03:57:48;;;;;;;2.72;1.58;;;;;;;14.60;53.84;98289.84;5020251;28;20052;-66
2022/05/29 04:00:14;;;;;;;4.03;1.80;;;;;;;15.12;52.17;98293.28;5054738;28;20040;-66
2022/05/29 04:02:40;;;;;;;5.25;2.13;;;;;;;15.65;50.73;98292.06;5036330;28;20097;-66
2022/05/29 04:05:14;;;;;;;4.25;1.65;;;;;;;15.92;49.97;98293.94;5036246;28;20045;-66
2022/05/29 04:13:09;;;;;;;2.92;1.55;;;;;;;15.29;51.78;98313.28;5054118;28;20425;-65
2022/05/29 04:15:36;;;;;;;2.92;1.73;;;;;;;15.07;51.96;98321.94;5054131;28;20041;-67
2022/05/29 04:18:03;;;;;;;2.97;1.80;;;;;;;15.24;52.01;98314.19;5036143;28;20052;-67
2022/05/29 04:20:29;;;;;;;3.22;1.60;;;;;;;15.43;51.11;98328.22;5054033;28;20052;-67
2022/05/29 04:22:55;;;;;;;2.00;1.70;;;;;;;15.65;50.36;98319.56;5054218;28;20041;-66
2022/05/29 04:25:20;;;;;;;7.15;1.77;;;;;;;15.51;51.09;98317.97;5053890;28;20041;-66
2022/05/29 04:27:46;;;;;;;3.72;2.15;;;;;;;15.61;51.12;98323.09;5053775;28;20048;-65
2022/05/29 04:30:12;;;;;;;6.13;1.95;;;;;;;15.71;50.84;98327.50;5036276;28;20044;-66
2022/05/29 04:35:22;;;;;;;3.95;1.75;;;;;;;15.44;51.26;98332.50;5053834;28;20036;-66
2022/05/29 04:37:49;;;;;;;3.33;1.70;;;;;;;14.97;52.29;98330.88;5053487;28;20194;-66
2022/05/29 04:40:15;;;;;;;2.28;1.70;;;;;;;14.74;52.89;98330.72;5047946;28;20041;-67
2022/05/29 04:42:40;;;;;;;2.65;1.70;;;;;;;14.51;53.11;98335.06;5033957;28;20045;-67
2022/05/29 04:45:07;;;;;;;2.53;1.50;;;;;;;14.97;53.01;98337.03;5034058;28;20041;-65
2022/05/29 04:47:33;;;;;;;2.28;1.48;;;;;;;15.73;51.32;98336.00;5039340;28;20045;-66
2022/05/29 04:49:58;;;;;;;3.45;1.60;;;;;;;16.48;49.20;98340.88;5053638;28;20037;-67
2022/05/29 04:52:24;;;;;;;3.15;1.67;;;;;;;16.56;48.96;98334.03;5053259;28;20056;-66
2022/05/29 04:54:50;;;;;;;2.10;1.55;;;;;;;16.70;48.96;98340.09;5019101;28;20041;-67
2022/05/29 04:57:18;;;;;;;4.32;1.90;;;;;;;16.37;49.23;98341.41;5018644;28;20064;-66
2022/05/29 04:59:44;;;;;;;2.35;1.60;;;;;;;16.23;49.58;98338.75;5035455;28;20045;-67
2022/05/29 05:02:10;;;;;;;2.80;1.40;;;;;;;15.92;49.58;98344.72;5034702;28;20053;-66
2022/05/29 05:04:36;;;;;;;2.58;1.85;;;;;;;15.54;50.70;98352.88;5036492;28;20034;-65
2022/05/29 05:07:03;;;;;;;2.08;1.40;;;;;;;15.29;50.73;98346.09;5037222;28;20094;-67
2022/05/29 05:09:30;;;;;;;3.55;1.60;;;;;;;14.95;51.13;98349.09;5035571;28;20056;-66
2022/05/29 05:11:56;;;;;;;1.40;1.30;;;;;;;14.85;51.66;98362.56;5052779;28;20102;-65
2022/05/29 05:14:24;;;;;;;4.00;1.40;;;;;;;15.16;50.78;98358.34;5052513;28;20430;-66
2022/05/29 05:16:52;;;;;;;3.47;1.55;;;;;;;15.49;49.89;98363.66;5018297;28;20052;-66
2022/05/29 05:19:19;;;;;;;2.15;1.50;;;;;;;15.89;49.24;98364.81;5052622;28;20083;-65
2022/05/29 05:21:45;;;;;;;3.25;1.42;;;;;;;16.05;48.79;98362.63;5053032;28;20072;-65
2022/05/29 05:24:11;;;;;;;4.53;1.40;;;;;;;16.01;49.24;98368.88;5052900;28;20049;-66
2022/05/29 05:26:37;;;;;;;3.17;1.50;;;;;;;15.84;48.57;98364.13;5052231;28;20499;-66
2022/05/29 05:29:03;;;;;;;1.65;1.40;;;;;;;15.66;49.51;98377.22;5052580;28;20410;-67
2022/05/29 05:31:29;;;;;;;2.80;1.45;;;;;;;15.41;50.50;98373.16;5052952;28;20135;-66
2022/05/29 05:33:55;;;;;;;3.35;1.40;;;;;;;15.71;50.00;98376.38;5034363;28;20044;-67
2022/05/29 05:36:21;;;;;;;2.65;1.75;;;;;;;15.95;49.61;98378.09;5052492;28;20060;-66
2022/05/29 05:38:47;;;;;;;4.07;1.50;;;;;;;15.78;49.88;98378.66;5052373;28;20053;-66
2022/05/29 05:41:14;;;;;;;1.85;1.65;;;;;;;15.65;49.94;98378.31;5034538;28;20045;-67
2022/05/29 05:43:40;;;;;;;3.72;1.60;;;;;;;15.60;50.05;98386.44;5052382;28;20089;-66
2022/05/29 05:46:08;;;;;;;1.42;1.27;;;;;;;15.40;50.33;98392.13;5050624;28;20043;-67
2022/05/29 05:48:34;;;;;;;5.78;1.48;;;;;;;15.10;50.54;98385.41;5017875;28;20117;-66
2022/05/29 05:51:00;;;;;;;1.98;1.50;;;;;;;14.86;51.11;98393.53;5052494;28;20107;-66
2022/05/29 05:53:26;;;;;;;2.65;1.63;;;;;;;14.66;51.58;98395.38;5051520;28;20044;-67
2022/05/29 05:55:52;;;;;;;2.50;1.63;;;;;;;14.27;52.47;98391.06;5051712;28;20125;-68
2022/05/29 05:58:18;;;;;;;2.92;1.50;;;;;;;14.16;53.09;98410.13;5052388;28;20068;-67
2022/05/29 06:00:45;;;;;;;5.18;1.50;;;;;;;14.05;52.68;98414.78;5051489;28;20044;-68
2022/05/29 06:03:11;;;;;;;1.83;1.50;;;;;;;13.96;53.23;98413.81;5052072;28;20045;-68
2022/05/29 06:05:37;;;;;;;2.70;1.45;;;;;;;13.95;53.57;98413.03;5051855;28;20078;-68
2022/05/29 06:08:03;;;;;;;3.88;1.42;;;;;;;13.76;53.78;98409.47;5017191;28;20045;-67
2022/05/29 06:10:29;;;;;;;2.35;1.30;;;;;;;13.69;54.80;98427.66;5033845;28;20132;-67
2022/05/29 06:12:56;;;;;;;2.45;1.65;;;;;;;13.63;54.62;98416.28;5051035;28;20060;-68
2022/05/29 06:15:22;;;;;;;1.48;1.38;;;;;;;13.75;54.57;98426.53;5051789;28;20478;-68
2022/05/29 06:17:48;;;;;;;5.45;1.52;;;;;;;13.95;54.48;98433.53;5017845;28;20076;-68
2022/05/29 06:20:13;;;;;;;2.00;1.60;;;;;;;14.08;54.07;98432.84;5051301;28;20043;-68
2022/05/29 06:22:43;;;;;;;2.35;1.35;;;;;;;14.07;54.19;98433.94;5051941;28;20045;-68
2022/05/29 06:25:12;;;;;;;2.20;1.63;;;;;;;14.02;54.33;98434.78;5011410;28;20131;-68
2022/05/29 06:27:40;;;;;;;1.50;1.35;;;;;;;13.82;54.86;98448.31;5051508;28;20044;-68
2022/05/29 06:30:07;;;;;;;3.20;1.52;;;;;;;13.99;54.17;98439.88;5033455;28;20091;-68
2022/05/29 06:32:34;;;;;;;2.00;1.50;;;;;;;14.06;54.18;98453.69;5051114;28;20394;-66
2022/05/29 06:35:00;;;;;;;1.95;1.40;;;;;;;14.08;54.36;98457.63;5028720;28;20048;-67
2022/05/29 06:37:27;;;;;;;2.83;1.45;;;;;;;14.04;54.85;98450.50;5033352;28;20072;-68
2022/05/29 06:39:53;;;;;;;1.70;1.40;;;;;;;13.82;55.55;98465.09;5050409;28;20052;-65
2022/05/29 06:42:21;;;;;;;1.38;1.27;;;;;;;13.84;55.09;98460.28;4985266;28;20048;-68
2022/05/29 06:44:46;;;;;;;1.75;1.40;;;;;;;14.03;55.82;98472.88;5032658;28;20037;-65
2022/05/29 06:47:14;;;;;;;2.97;1.48;;;;;;;14.09;55.62;98466.44;5051025;28;20083;-65
2022/05/29 06:49:40;;;;;;;3.33;1.33;;;;;;;14.13;55.07;98467.44;5051090;28;20052;-66
2022/05/29 06:52:10;;;;;;;3.20;1.50;;;;;;;14.05;55.42;98470.72;5032820;28;20052;-66
2022/05/29 06:54:37;;;;;;;1.80;1.60;;;;;;;14.13;55.66;98478.13;5032493;28;20052;-67
2022/05/29 06:57:06;;;;;;;2.30;1.30;;;;;;;14.22;55.54;98479.06;5032826;28;20048;-68
2022/05/29 07:08:01;;;;;;;1.70;1.48;;;;;;;14.26;55.10;98487.28;5054401;28;20052;-65
2022/05/29 07:10:30;;;;;;;2.45;1.48;;;;;;;14.29;55.18;98494.72;5055267;28;20048;-67
2022/05/29 07:12:57;;;;;;;2.15;1.58;;;;;;;14.29;54.77;98497.38;5054971;28;20063;-66
2022/05/29 07:15:23;;;;;;;2.58;1.42;;;;;;;14.17;54.64;98495.13;5037237;28;20075;-66
2022/05/29 07:17:49;;;;;;;1.80;1.30;;;;;;;13.98;55.82;98491.59;5055255;28;20733;-66
2022/05/29 07:20:16;;;;;;;3.47;1.63;;;;;;;13.89;56.32;98496.75;5019592;28;20033;-65
2022/05/29 07:22:43;;;;;;;3.78;1.70;;;;;;;13.82;55.97;98510.38;5054367;28;20498;-67
2022/05/29 07:25:11;;;;;;;1.92;1.50;;;;;;;13.95;56.27;98513.47;5055023;28;20136;-69
2022/05/29 07:27:38;;;;;;;3.60;1.70;;;;;;;13.85;56.84;98503.69;5054619;28;20447;-68
2022/05/29 07:30:06;;;;;;;2.05;1.40;;;;;;;14.04;56.07;98515.25;5054378;28;20041;-67
2022/05/29 07:32:32;;;;;;;4.57;1.40;;;;;;;14.11;56.17;98517.56;5054462;28;20048;-67
2022/05/29 07:34:58;;;;;;;2.63;1.50;;;;;;;14.17;55.85;98520.97;5053403;28;20033;-68
2022/05/29 07:37:24;;;;;;;3.67;1.95;;;;;;;14.16;56.07;98520.19;5054484;28;20044;-66
2022/05/29 07:39:52;;;;;;;2.70;1.75;;;;;;;14.24;56.17;98535.56;5021917;28;20083;-66
2022/05/29 07:45:05;;;;;;;3.60;1.60;;;;;;;14.02;56.06;98530.69;5053403;28;20425;-66
2022/05/29 07:47:42;;;;;;;2.20;1.58;;;;;;;13.78;57.51;98541.31;5054803;28;20048;-66
2022/05/29 07:50:10;;;;;;;3.70;1.58;;;;;;;13.84;57.32;98544.72;5036543;28;20037;-67
2022/05/29 07:52:36;;;;;;;3.70;2.45;;;;;;;13.91;57.58;98541.72;5047010;28;20040;-65
2022/05/29 07:55:02;;;;;;;3.30;1.88;;;;;;;13.79;57.44;98544.75;5036155;28;20450;-66
2022/05/29 07:57:29;;;;;;;3.58;1.75;;;;;;;13.80;58.26;98552.47;5054168;28;20044;-68
2022/05/29 07:59:55;;;;;;;2.92;1.83;;;;;;;13.93;58.05;98548.38;5054233;28;20037;-68
2022/05/29 08:02:20;;;;;;;3.25;2.33;;;;;;;13.99;57.44;98555.25;5035991;28;20048;-67
2022/05/29 08:04:46;;;;;;;4.15;2.10;;;;;;;14.21;57.27;98544.13;5054191;28;20044;-69
2022/05/29 08:07:15;;;;;;;4.03;1.90;;;;;;;14.42;56.58;98554.59;5035736;28;20053;-66
2022/05/29 08:09:41;;;;;;;3.65;2.15;;;;;;;14.51;56.72;98553.72;5019717;28;20467;-67
2022/05/29 08:12:08;;;;;;;3.42;1.98;;;;;;;14.66;55.38;98554.63;5053757;28;20123;-66
2022/05/29 08:14:33;;;;;;;4.30;2.10;;;;;;;14.72;56.46;98559.63;5035410;28;20144;-66
2022/05/29 08:16:59;;;;;;;2.72;2.40;;;;;;;14.86;56.45;98553.59;5052983;28;20067;-65
2022/05/29 08:19:25;;;;;;;3.25;2.00;;;;;;;15.08;55.38;98561.84;5053167;28;20087;-67
2022/05/29 08:21:51;;;;;;;4.60;2.50;;;;;;;15.29;55.19;98562.38;5035384;28;20502;-67
2022/05/29 08:32:30;;;;;;;4.90;2.40;;;;;;;15.39;54.56;98551.56;5033962;28;20045;-66
2022/05/29 08:34:55;;;;;;;2.75;2.08;;;;;;;15.34;54.72;98561.50;5023304;28;20047;-67
2022/05/29 08:37:21;;;;;;;6.20;2.30;;;;;;;15.38;54.08;98549.97;5053253;28;20041;-66
2022/05/29 08:39:47;;;;;;;2.03;1.77;;;;;;;15.62;53.58;98555.22;5035513;28;20045;-67
2022/05/29 08:42:13;;;;;;;7.10;2.47;;;;;;;15.76;53.41;98555.28;5053670;28;20049;-67
2022/05/29 08:44:46;;;;;;;3.05;1.60;;;;;;;15.92;52.64;98560.41;5053273;28;20044;-66
2022/05/29 08:47:14;;;;;;;3.70;1.85;;;;;;;16.12;51.75;98570.78;5034808;28;20152;-66
2022/05/29 08:49:43;;;;;;;3.30;2.03;;;;;;;16.24;51.70;98570.31;5053066;28;20494;-68
2022/05/29 08:52:16;;;;;;;3.08;1.80;;;;;;;16.15;52.66;98572.03;5052695;28;20067;-67
2022/05/29 08:55:06;;;;;;;2.22;1.55;;;;;;;16.11;51.44;98577.19;5052834;28;20056;-66
2022/05/29 08:57:47;;;;;;;2.95;1.88;;;;;;;15.90;51.48;98574.06;5019049;28;20048;-66
2022/05/29 09:00:20;;;;;;;3.08;1.85;;;;;;;15.76;51.61;98562.53;5053121;28;20032;-67
2022/05/29 09:02:59;;;;;;;3.10;1.80;;;;;;;15.84;51.69;98568.00;5053289;28;20068;-66
2022/05/29 09:05:33;;;;;;;2.38;1.90;;;;;;;15.83;51.47;98565.63;5034757;28;20523;-68
2022/05/29 09:08:03;;;;;;;3.65;2.00;;;;;;;15.80;51.13;98579.56;5018450;28;20059;-67
2022/05/29 09:10:38;;;;;;;2.10;1.88;;;;;;;16.17;51.11;98577.91;5034889;28;20099;-68
2022/05/29 09:13:08;;;;;;;2.50;1.63;;;;;;;16.41;49.55;98570.50;5034622;28;20056;-67
2022/05/29 09:15:43;;;;;;;1.43;1.33;;;;;;;16.53;48.27;98570.84;5034472;28;20047;-67
2022/05/29 09:18:12;;;;;;;2.65;1.40;;;;;;;16.39;49.91;98574.59;5053077;28;20386;-66
2022/05/29 09:20:43;;;;;;;1.77;1.30;;;;;;;16.46;49.92;98581.13;5052253;28;20142;-66
2022/05/29 09:23:14;;;;;;;2.60;1.45;;;;;;;16.31;48.54;98578.72;5034152;28;20053;-67
2022/05/29 09:25:44;;;;;;;7.75;1.80;;;;;;;16.16;48.79;98574.44;5032694;28;20568;-67
2022/05/29 09:28:12;;;;;;;2.28;1.60;;;;;;;16.13;49.51;98591.06;5014432;28;20410;-67
2022/05/29 09:30:38;;;;;;;7.10;1.83;;;;;;;16.05;49.01;98589.84;5032507;28;20045;-66
2022/05/29 09:33:15;;;;;;;2.38;1.45;;;;;;;15.93;48.53;98584.16;5050357;28;20099;-65
2022/05/29 09:35:53;;;;;;;3.22;1.60;;;;;;;15.73;49.26;98582.59;5034545;28;20041;-68
2022/05/29 09:38:26;;;;;;;4.40;1.40;;;;;;;15.36;50.21;98592.19;5034266;28;20080;-67
2022/05/29 09:41:41;;;;;;;2.08;1.48;;;;;;;15.12;50.58;98610.13;5034234;28;20051;-67
2022/05/29 09:44:09;;;;;;;1.67;1.23;;;;;;;14.72;50.74;98612.97;4997814;28;20049;-66
2022/05/29 09:46:39;;;;;;;1.40;1.30;;;;;;;14.35;52.23;98615.44;5052219;28;20053;-66
2022/05/29 09:52:09;;;;;;;5.20;2.20;;;;;;;13.46;56.72;98619.00;5051372;28;20041;-69
2022/05/29 09:54:37;;;;;;;1.73;1.40;;;;;;;13.37;57.50;98613.47;5034136;28;20054;-65
2022/05/29 09:57:08;;;;;;;2.05;1.30;;;;;;;13.43;58.73;98613.44;5034109;28;20418;-68
2022/05/29 09:59:37;;;;;;;1.35;1.25;;;;;;;13.63;59.48;98619.44;5052172;28;20463;-67
2022/05/29 10:02:04;;;;;;;2.47;1.10;;;;;;;13.88;57.21;98619.53;5038510;28;20110;-66
2022/05/29 10:04:37;;;;;;;2.10;1.08;;;;;;;14.18;57.27;98615.88;5034307;28;20131;-66
2022/05/29 10:07:34;;;;;;;3.40;1.35;;;;;;;14.48;54.44;98604.91;5050706;28;20049;-66
2022/05/29 10:10:01;;;;;;;2.13;1.80;;;;;;;14.93;54.34;98612.75;5050655;28;20074;-66
2022/05/29 10:12:44;;;;;;;1.42;1.25;;;;;;;15.14;54.55;98610.63;5040176;28;20049;-67
2022/05/29 10:15:25;;;;;;;3.75;1.60;;;;;;;15.55;53.43;98616.22;5032941;28;20110;-70
2022/05/29 10:17:53;;;;;;;1.50;1.40;;;;;;;15.80;52.70;98607.09;5051086;28;20061;-69
2022/05/29 10:20:26;;;;;;;1.70;1.60;;;;;;;16.09;50.57;98614.91;5052214;28;20045;-67
2022/05/29 10:22:55;;;;;;;2.50;1.60;;;;;;;16.28;48.99;98609.50;5051600;28;20136;-68
2022/05/29 10:25:23;;;;;;;4.45;1.80;;;;;;;16.50;49.44;98606.19;5033907;28;20052;-68
2022/05/29 10:27:50;;;;;;;1.42;1.30;;;;;;;16.37;48.89;98611.53;5033386;28;20048;-67
2022/05/29 10:31:04;;;;;;;2.30;1.45;;;;;;;16.49;48.61;98606.47;5033644;28;20045;-66
2022/05/29 10:33:46;;;;;;;1.65;1.52;;;;;;;16.57;48.83;98606.59;5034072;28;20110;-63
2022/05/29 10:36:14;;;;;;;1.52;1.42;;;;;;;16.53;49.22;98602.13;5046425;28;20110;-67
2022/05/29 10:38:41;;;;;;;4.00;1.55;;;;;;;16.41;49.50;98602.59;5051216;28;20120;-66
2022/05/29 10:41:08;;;;;;;2.95;1.77;;;;;;;16.45;49.79;98608.97;5016571;28;20037;-65
2022/05/29 10:43:50;;;;;;;1.98;1.50;;;;;;;16.41;50.54;98602.59;5033588;28;20494;-67
2022/05/29 10:46:16;;;;;;;2.63;1.50;;;;;;;16.44;50.39;98615.41;5033575;28;20498;-66
2022/05/29 10:48:54;;;;;;;2.17;1.45;;;;;;;16.62;50.50;98603.03;5051265;28;20045;-68
2022/05/29 10:51:20;;;;;;;2.08;1.40;;;;;;;16.85;49.30;98603.16;5032684;28;20040;-66
2022/05/29 10:54:04;;;;;;;3.53;1.60;;;;;;;16.81;48.30;98600.31;5050964;28;20052;-68
2022/05/29 10:57:03;;;;;;;1.73;1.42;;;;;;;16.38;48.21;98605.06;5050633;28;20044;-67
2022/05/29 10:59:51;;;;;;;2.05;1.40;;;;;;;15.98;48.43;98608.13;5032998;28;20049;-65
2022/05/29 11:05:30;;;;;;;2.60;1.50;;;;;;;15.41;49.70;98621.50;5050141;28;20072;-66
2022/05/29 11:08:12;;;;;;;3.75;1.58;;;;;;;15.18;49.92;98625.00;5051052;28;20045;-67
2022/05/29 11:10:59;;;;;;;2.28;1.67;;;;;;;15.02;49.09;98628.91;5051075;28;20060;-65
2022/05/29 11:13:39;;;;;;;1.77;1.30;;;;;;;14.90;48.86;98632.00;5032759;28;20154;-66
2022/05/29 11:16:11;;;;;;;3.72;1.73;;;;;;;14.80;49.96;98640.91;5049219;28;20049;-66
2022/05/29 11:19:04;;;;;;;1.60;1.50;;;;;;;14.76;49.70;98639.88;5050748;28;20187;-68
2022/05/29 11:22:04;;;;;;;1.52;1.40;;;;;;;14.77;50.50;98655.59;5050684;28;20456;-66
2022/05/29 11:25:05;;;;;;;4.38;1.70;;;;;;;14.83;50.66;98655.56;5050987;28;20055;-66
2022/05/29 11:27:43;;;;;;;2.00;1.58;;;;;;;15.03;51.33;98651.84;5040303;28;20045;-67
2022/05/29 11:30:30;;;;;;;3.08;1.75;;;;;;;15.15;49.98;98657.59;5050858;28;20044;-67
2022/05/29 11:33:29;;;;;;;2.55;1.80;;;;;;;15.10;49.63;98655.00;5050695;28;20040;-66
2022/05/29 11:36:05;;;;;;;1.50;1.40;;;;;;;15.26;47.71;98659.06;5049366;28;20127;-67
2022/05/29 11:38:52;;;;;;;1.80;1.40;;;;;;;15.25;46.90;98654.00;5050545;28;20147;-67
2022/05/29 11:41:25;;;;;;;4.47;1.40;;;;;;;15.23;47.35;98654.28;5050786;28;20079;-67
2022/05/29 11:44:18;;;;;;;4.25;1.80;;;;;;;15.21;47.09;98640.44;5032647;28;20033;-66
2022/05/29 11:52:45;;;;;;;1.98;1.33;;;;;;;15.39;47.26;98636.22;5019123;28;20383;-67
2022/05/29 11:55:21;;;;;;;3.42;1.67;;;;;;;15.45;48.64;98645.75;5043783;28;20417;-66
2022/05/29 11:58:05;;;;;;;1.35;1.25;;;;;;;15.54;47.85;98653.91;5054374;28;20066;-67
2022/05/29 12:00:42;;;;;;;2.17;1.60;;;;;;;15.66;47.86;98667.63;5054184;28;20041;-65
2022/05/29 12:03:14;;;;;;;2.72;1.88;;;;;;;15.79;45.58;98672.28;5034555;28;20573;-64
2022/05/29 12:05:51;;;;;;;3.28;1.58;;;;;;;16.09;46.33;98680.97;5053747;28;20518;-67
2022/05/29 12:08:21;;;;;;;2.47;1.58;;;;;;;16.44;44.23;98687.63;5053546;28;20033;-64
2022/05/29 12:10:53;;;;;;;3.05;1.73;;;;;;;16.83;43.94;98689.13;5046860;28;20503;-65
2022/05/29 12:13:22;;;;;;;2.00;1.40;;;;;;;17.09;43.44;98692.13;5015653;28;20061;-65
2022/05/29 12:15:53;;;;;;;1.67;1.50;;;;;;;17.05;42.55;98691.13;5013845;28;20487;-66
2022/05/29 12:18:19;;;;;;;3.20;1.73;;;;;;;17.09;42.88;98702.84;5036122;28;20052;-66
2022/05/29 12:20:56;;;;;;;3.47;1.35;;;;;;;17.04;42.47;98710.97;5053316;28;20037;-65
2022/05/29 12:23:25;;;;;;;3.58;1.33;;;;;;;16.83;42.31;98715.91;5053365;28;20057;-65
2022/05/29 12:26:12;;;;;;;1.40;1.30;;;;;;;16.41;43.57;98725.63;5049909;28;20037;-67
2022/05/29 12:29:07;;;;;;;4.78;1.50;;;;;;;16.15;43.97;98737.81;5035716;28;20463;-64
2022/05/29 12:31:38;;;;;;;3.33;2.00;;;;;;;15.38;44.40;98750.25;5017631;28;20049;-66
2022/05/29 12:34:05;;;;;;;2.67;1.45;;;;;;;14.61;44.58;98749.38;5033845;28;20045;-66
2022/05/29 12:37:08;;;;;;;2.40;1.80;;;;;;;14.37;47.54;98759.94;5015680;28;20537;-65